Time;durP1;ratioP1;P1;durP2;ratioP2;P2;SDS_P1;SDS_P2;PMS_P1;PMS_P2;Temp;Humidity;BMP_temperature;BMP_pressure;BME280_temperature;BME280_humidity;BME280_pressure;Samples;Min_cycle;Max_cycle;Signal;HPM_P1;HPM_P2
2021/10/11 00:02:39;;;;;;;1.90;1.60;;;24.90;38.00;27.90;94649.00;;;;10328398;28;62372;-66
2021/10/11 00:07:41;;;;;;;2.20;1.52;;;24.90;38.10;27.90;94654.00;;;;10311897;28;47300;-66
2021/10/11 00:12:42;;;;;;;1.80;1.30;;;24.90;38.00;27.80;94654.00;;;;10313599;28;45334;-65
2021/10/11 00:17:43;;;;;;;1.80;1.45;;;25.00;38.00;27.80;94651.00;;;;10312835;28;45329;-65
2021/10/11 00:22:43;;;;;;;1.48;1.30;;;24.90;38.00;27.90;94651.00;;;;10312491;28;74534;-66
2021/10/11 00:27:44;;;;;;;1.65;1.38;;;24.90;38.00;27.90;94642.00;;;;10310783;28;47852;-66
2021/10/11 00:32:47;;;;;;;2.47;1.55;;;24.80;38.00;27.80;94635.00;;;;10312283;28;75738;-65
2021/10/11 00:37:47;;;;;;;1.80;1.40;;;24.80;38.00;27.80;94639.00;;;;10310122;28;48230;-66
2021/10/11 00:42:48;;;;;;;1.80;1.40;;;24.90;38.00;27.80;94641.00;;;;10312856;28;74707;-66
2021/10/11 00:47:49;;;;;;;1.48;1.20;;;24.80;38.00;27.80;94642.00;;;;10310186;28;47163;-66
2021/10/11 00:52:50;;;;;;;1.55;1.27;;;24.80;38.00;27.80;94645.00;;;;10326247;28;73906;-66
2021/10/11 00:57:51;;;;;;;1.58;1.20;;;24.80;37.90;27.80;94645.00;;;;10325742;28;74491;-66
2021/10/11 01:02:52;;;;;;;2.05;1.40;;;24.80;38.00;27.80;94651.00;;;;10320457;28;73041;-67
2021/10/11 01:07:52;;;;;;;1.58;1.23;;;24.80;38.00;27.80;94657.00;;;;10324650;28;73616;-67
2021/10/11 01:12:53;;;;;;;1.25;1.15;;;24.80;38.00;27.80;94666.00;;;;10326419;28;63854;-66
2021/10/11 01:17:54;;;;;;;1.73;1.42;;;24.80;38.00;27.80;94663.00;;;;10308899;28;74116;-66
2021/10/11 01:22:54;;;;;;;1.83;1.38;;;24.80;37.90;27.80;94659.00;;;;10309241;28;76096;-66
2021/10/11 01:27:55;;;;;;;1.45;1.17;;;24.90;38.00;27.80;94650.00;;;;10325610;28;63335;-66
2021/10/11 01:32:56;;;;;;;1.55;1.17;;;24.80;37.90;27.80;94639.00;;;;10326145;28;54713;-65
2021/10/11 01:37:57;;;;;;;1.88;1.20;;;24.80;38.00;27.80;94643.00;;;;10310636;28;45474;-65
2021/10/11 01:42:57;;;;;;;1.77;1.35;;;24.80;37.90;27.80;94642.00;;;;10325245;28;73494;-66
2021/10/11 01:47:59;;;;;;;1.88;1.40;;;24.80;37.90;27.80;94643.00;;;;10324064;28;75816;-65
2021/10/11 01:53:00;;;;;;;1.55;1.27;;;24.80;38.00;27.70;94649.00;;;;10325005;28;46996;-66
2021/10/11 01:58:01;;;;;;;1.65;1.30;;;24.80;37.90;27.80;94643.00;;;;10325517;28;45453;-65
2021/10/11 02:03:06;;;;;;;1.60;1.30;;;24.80;38.00;27.80;94630.00;;;;10325309;28;53284;-66
2021/10/11 02:08:07;;;;;;;2.13;1.38;;;24.80;37.90;27.80;94621.00;;;;10324571;28;45557;-65
2021/10/11 02:13:08;;;;;;;2.03;1.23;;;24.80;37.90;27.80;94627.00;;;;10324819;28;46712;-65
2021/10/11 02:18:09;;;;;;;1.33;1.20;;;24.80;37.90;27.70;94625.00;;;;10308582;28;75573;-66
2021/10/11 02:23:09;;;;;;;2.67;1.30;;;24.80;37.80;27.80;94624.00;;;;10307328;28;75066;-65
2021/10/11 02:28:10;;;;;;;1.92;1.30;;;24.80;37.80;27.70;94614.00;;;;10308318;28;67486;-66
2021/10/11 02:33:11;;;;;;;1.33;1.10;;;24.80;37.80;27.70;94615.00;;;;10308678;28;74576;-66
2021/10/11 02:38:11;;;;;;;1.35;1.10;;;24.80;37.80;27.70;94612.00;;;;10324290;28;49700;-66
2021/10/11 02:43:12;;;;;;;1.45;1.25;;;24.80;37.80;27.70;94606.00;;;;10323823;28;75957;-65
2021/10/11 02:48:13;;;;;;;1.40;1.20;;;24.80;37.90;27.70;94602.00;;;;10323058;28;75278;-66
2021/10/11 02:53:15;;;;;;;1.75;1.20;;;24.80;37.80;27.70;94592.00;;;;10308678;28;57626;-65
2021/10/11 02:58:15;;;;;;;2.15;1.40;;;24.80;37.80;27.70;94585.00;;;;10325765;28;45453;-66
2021/10/11 03:03:16;;;;;;;1.30;1.20;;;24.80;37.80;27.70;94570.00;;;;10315803;28;45440;-65
2021/10/11 03:08:17;;;;;;;1.67;1.33;;;24.70;37.70;27.70;94574.00;;;;10329115;28;75167;-65
2021/10/11 03:13:17;;;;;;;1.55;1.20;;;24.70;37.70;27.70;94592.00;;;;10329314;28;74408;-65
2021/10/11 03:18:18;;;;;;;1.50;1.10;;;24.70;37.70;27.70;94580.00;;;;10330222;28;46594;-66
2021/10/11 03:23:19;;;;;;;1.42;1.30;;;24.70;37.70;27.70;94570.00;;;;10312556;28;75326;-66
2021/10/11 03:28:19;;;;;;;1.60;1.30;;;24.90;37.70;27.70;94587.00;;;;10446569;22;74847;-67
2021/10/11 03:33:20;;;;;;;1.75;1.15;;;24.80;37.70;27.70;94588.00;;;;10379320;28;49004;-66
2021/10/11 03:38:21;;;;;;;1.30;1.10;;;24.70;37.60;27.70;94595.00;;;;10395955;28;45372;-66
2021/10/11 03:43:21;;;;;;;1.40;1.20;;;24.90;37.80;27.70;94608.00;;;;10397277;28;45566;-66
2021/10/11 03:48:23;;;;;;;1.38;1.17;;;24.70;37.60;27.70;94611.00;;;;10394164;28;75616;-66
2021/10/11 03:53:24;;;;;;;1.38;1.20;;;24.70;37.60;27.70;94614.00;;;;10378174;28;51018;-66
2021/10/11 03:58:24;;;;;;;1.42;1.20;;;24.70;37.60;27.70;94616.00;;;;10376858;28;74332;-66
2021/10/11 04:03:25;;;;;;;1.40;1.10;;;24.70;37.60;27.70;94612.00;;;;10393402;28;74333;-66
2021/10/11 04:08:34;;;;;;;1.95;1.38;;;24.70;37.60;27.70;94614.00;;;;10395203;28;45330;-66
2021/10/11 04:13:34;;;;;;;1.35;1.25;;;24.70;37.70;27.70;94614.00;;;;10378386;28;48185;-66
2021/10/11 04:18:35;;;;;;;1.30;1.00;;;24.70;37.60;27.70;94617.00;;;;10376883;28;73990;-66
2021/10/11 04:23:36;;;;;;;1.35;1.10;;;24.80;37.70;27.80;94613.00;;;;10392412;28;75562;-66
2021/10/11 04:28:37;;;;;;;1.42;1.10;;;24.90;37.70;27.80;94611.00;;;;10392927;28;45375;-66
2021/10/11 04:33:38;;;;;;;1.30;1.08;;;25.00;37.70;27.80;94606.00;;;;10376555;28;53778;-66
2021/10/11 04:38:38;;;;;;;1.95;1.30;;;25.00;37.60;27.90;94606.00;;;;10376269;28;54850;-66
2021/10/11 04:43:39;;;;;;;1.65;1.10;;;25.00;37.60;27.90;94610.00;;;;10392925;28;45458;-68
2021/10/11 04:48:40;;;;;;;1.70;1.00;;;25.00;37.50;28.00;94626.00;;;;10375945;28;75123;-67
2021/10/11 04:53:40;;;;;;;1.27;1.02;;;25.00;37.50;28.00;94627.00;;;;10392926;28;75854;-66
2021/10/11 04:58:41;;;;;;;1.65;1.38;;;25.40;37.70;28.00;94618.00;;;;10392892;28;75377;-66
2021/10/11 05:03:42;;;;;;;1.20;0.90;;;25.20;37.50;28.00;94612.00;;;;10374911;28;71315;-66
2021/10/11 05:08:42;;;;;;;1.13;0.90;;;25.30;37.50;28.10;94608.00;;;;10390885;28;76412;-66
2021/10/11 05:13:43;;;;;;;1.60;1.02;;;25.00;37.30;28.10;94608.00;;;;10393298;28;45471;-67
2021/10/11 05:18:44;;;;;;;1.35;1.00;;;25.00;37.20;28.10;94615.00;;;;10374888;28;63375;-66
2021/10/11 05:23:44;;;;;;;1.42;1.20;;;25.10;37.30;28.10;94604.00;;;;10375105;28;47432;-67
2021/10/11 05:28:45;;;;;;;1.13;1.00;;;25.00;37.20;28.10;94609.00;;;;10393401;28;61275;-67
2021/10/11 05:33:46;;;;;;;1.33;0.93;;;25.20;37.30;28.00;94589.00;;;;10391561;28;74015;-67
2021/10/11 05:38:48;;;;;;;1.35;1.00;;;25.00;37.20;28.10;94598.00;;;;10390589;28;75345;-66
2021/10/11 05:43:49;;;;;;;1.30;1.00;;;25.00;37.20;28.00;94605.00;;;;10379352;28;47122;-66
2021/10/11 05:48:50;;;;;;;1.25;0.90;;;25.10;37.30;28.00;94609.00;;;;10389772;28;74263;-67
2021/10/11 05:53:51;;;;;;;1.33;1.02;;;25.10;37.30;28.10;94622.00;;;;10389615;28;75231;-68
2021/10/11 05:58:51;;;;;;;1.73;1.10;;;25.10;37.20;28.10;94620.00;;;;10390185;28;75177;-67
2021/10/11 06:03:53;;;;;;;1.17;0.95;;;25.20;37.20;28.10;94637.00;;;;10390012;28;75730;-67
2021/10/11 06:08:54;;;;;;;1.50;1.15;;;25.10;37.10;28.10;94633.00;;;;10373311;28;74097;-67
2021/10/11 06:13:55;;;;;;;1.40;1.10;;;25.40;37.30;28.10;94637.00;;;;10390856;28;75572;-67
2021/10/11 06:18:55;;;;;;;1.67;1.20;;;25.20;37.20;28.10;94629.00;;;;10389520;28;75388;-67
2021/10/11 06:23:57;;;;;;;1.45;1.13;;;25.20;37.10;28.20;94649.00;;;;10388869;28;75662;-66
2021/10/11 06:28:58;;;;;;;1.50;1.20;;;25.20;37.00;28.20;94663.00;;;;10390985;28;71290;-67
2021/10/11 06:33:59;;;;;;;1.40;1.00;;;25.10;37.00;28.20;94672.00;;;;10392336;28;74574;-69
2021/10/11 06:38:59;;;;;;;3.92;2.20;;;25.30;37.20;27.90;94666.00;;;;10397264;28;45339;-65
2021/10/11 06:44:00;;;;;;;3.33;2.03;;;24.80;33.40;27.80;94657.00;;;;10395618;28;75468;-66
2021/10/11 06:49:01;;;;;;;2.03;1.50;;;24.80;34.70;27.80;94667.00;;;;10397638;28;75345;-67
2021/10/11 06:54:02;;;;;;;3.20;1.92;;;24.90;35.00;27.90;94671.00;;;;10395656;28;46167;-66
2021/10/11 06:59:02;;;;;;;2.13;1.63;;;25.20;35.20;27.90;94678.00;;;;10397247;28;46460;-65
2021/10/11 07:04:03;;;;;;;2.85;1.70;;;25.00;34.60;27.90;94691.00;;;;10394628;28;74306;-64
2021/10/11 07:09:04;;;;;;;2.50;2.00;;;25.00;34.70;27.90;94684.00;;;;10397461;28;45385;-64
2021/10/11 07:14:05;;;;;;;3.38;1.90;;;25.00;34.30;28.00;94692.00;;;;10396282;28;73447;-63
2021/10/11 07:19:05;;;;;;;3.40;1.70;;;25.00;33.70;27.90;94679.00;;;;10396351;28;54676;-65
2021/10/11 07:24:06;;;;;;;3.08;1.73;;;25.00;34.50;27.90;94703.00;;;;10392089;28;75591;-65
2021/10/11 07:29:08;;;;;;;2.42;1.80;;;25.00;34.50;27.90;94693.00;;;;10375175;28;74733;-65
2021/10/11 07:34:09;;;;;;;3.08;2.15;;;25.10;33.70;27.90;94670.00;;;;10394239;28;46280;-66
2021/10/11 07:39:09;;;;;;;3.15;1.70;;;25.00;32.30;28.00;94691.00;;;;10395079;28;45570;-64
2021/10/11 07:44:10;;;;;;;2.40;1.75;;;25.00;33.30;28.00;94684.00;;;;10376192;28;75295;-62
2021/10/11 07:49:13;;;;;;;3.75;1.65;;;25.10;33.80;28.00;94678.00;;;;10394101;28;46010;-66
2021/10/11 07:54:16;;;;;;;4.50;1.63;;;25.20;34.10;28.00;94684.00;;;;10376872;28;48184;-63
2021/10/11 07:59:16;;;;;;;2.25;1.60;;;25.10;33.60;28.10;94690.00;;;;10393552;28;45445;-64
2021/10/11 08:04:17;;;;;;;2.40;1.60;;;25.00;33.30;28.10;94690.00;;;;10393745;28;74214;-65
2021/10/11 08:09:18;;;;;;;2.70;1.73;;;25.00;33.20;28.10;94674.00;;;;10392855;28;60608;-64
2021/10/11 08:14:19;;;;;;;2.38;1.63;;;25.10;34.10;28.10;94667.00;;;;10394770;28;74485;-63
2021/10/11 08:19:19;;;;;;;2.50;1.75;;;25.00;33.40;28.10;94671.00;;;;10393403;28;73360;-63
2021/10/11 08:24:20;;;;;;;2.30;1.60;;;25.00;33.20;28.10;94679.00;;;;10393176;28;46366;-63
2021/10/11 08:29:21;;;;;;;2.85;1.52;;;25.20;33.40;28.10;94691.00;;;;10391844;28;75542;-66
2021/10/11 08:34:21;;;;;;;2.70;1.50;;;25.10;34.00;28.00;94666.00;;;;10375765;28;47474;-65
2021/10/11 08:39:22;;;;;;;3.22;1.70;;;25.20;34.10;28.10;94671.00;;;;10391724;28;74769;-65
2021/10/11 08:44:23;;;;;;;2.20;1.50;;;25.30;33.60;28.10;94676.00;;;;10391441;28;74419;-65
2021/10/11 08:49:25;;;;;;;3.03;1.70;;;25.00;33.40;28.10;94678.00;;;;10391613;28;46357;-65
2021/10/11 08:54:25;;;;;;;4.53;2.20;;;25.00;33.40;28.10;94669.00;;;;10388512;28;54271;-63
2021/10/11 08:59:29;;;;;;;2.42;1.90;;;25.20;33.80;28.10;94677.00;;;;10373634;28;48158;-64
2021/10/11 09:04:31;;;;;;;2.10;1.60;;;25.10;34.00;28.00;94666.00;;;;10392031;28;45534;-65
2021/10/11 09:09:43;;;;;;;3.00;2.00;;;25.20;34.30;28.10;94681.00;;;;10357776;28;47336;-63
2021/10/11 09:14:46;;;;;;;3.25;2.10;;;25.10;34.20;28.10;94689.00;;;;10390370;28;46293;-64
2021/10/11 09:19:57;;;;;;;2.78;2.03;;;25.10;34.50;28.10;94670.00;;;;10392029;28;45456;-65
2021/10/11 09:24:59;;;;;;;3.45;1.80;;;25.20;34.70;28.10;94682.00;;;;10392105;28;45384;-66
2021/10/11 09:30:09;;;;;;;2.42;1.60;;;25.30;34.90;28.20;94671.00;;;;10390385;28;45545;-66
2021/10/11 09:35:19;;;;;;;3.47;1.83;;;25.20;34.90;28.20;94677.00;;;;10389874;28;45498;-65
2021/10/11 09:40:23;;;;;;;2.60;1.42;;;25.20;35.00;28.20;94668.00;;;;10389547;28;46424;-66
2021/10/11 09:45:24;;;;;;;2.35;1.48;;;25.20;35.10;28.20;94682.00;;;;10389661;28;46361;-63
2021/10/11 09:50:26;;;;;;;3.40;1.80;;;25.30;35.20;28.20;94677.00;;;;10389538;28;45592;-66
2021/10/11 09:55:27;;;;;;;4.10;1.70;;;25.30;35.30;28.20;94680.00;;;;10389505;28;45442;-63
2021/10/11 10:00:28;;;;;;;3.80;2.00;;;25.40;35.40;28.20;94674.00;;;;10372580;28;47793;-67
2021/10/11 10:05:35;;;;;;;3.55;1.90;;;25.30;35.40;28.20;94668.00;;;;10390270;28;45440;-66
2021/10/11 10:10:37;;;;;;;3.92;1.88;;;25.30;35.50;28.20;94678.00;;;;10395574;28;55105;-61
2021/10/11 10:15:38;;;;;;;2.75;1.70;;;25.30;35.40;28.20;94672.00;;;;10396956;28;46189;-60
2021/10/11 10:20:59;;;;;;;2.70;1.55;;;25.30;35.50;28.40;94680.00;;;;10386718;28;45575;-64
2021/10/11 10:26:08;;;;;;;2.30;1.60;;;25.30;35.60;28.20;94669.00;;;;10391257;28;46081;-66
2021/10/11 10:31:09;;;;;;;3.47;1.73;;;25.30;35.60;28.20;94666.00;;;;10397385;28;45613;-65
2021/10/11 10:36:28;;;;;;;3.05;1.80;;;25.30;35.60;28.40;94683.00;;;;10397321;28;45401;-63
2021/10/11 10:41:31;;;;;;;3.75;2.25;;;25.20;35.70;28.20;94661.00;;;;10397992;28;46300;-65
2021/10/11 10:46:31;;;;;;;3.83;1.98;;;25.20;35.80;28.20;94674.00;;;;10380785;28;47063;-65
2021/10/11 10:51:32;;;;;;;3.67;1.90;;;25.20;35.70;28.20;94670.00;;;;10379178;28;74157;-65
2021/10/11 10:56:32;;;;;;;2.95;1.73;;;25.20;35.70;28.20;94660.00;;;;10395207;28;74911;-64
2021/10/11 11:01:33;;;;;;;2.65;1.60;;;25.20;35.60;28.20;94653.00;;;;10395866;28;75371;-65
2021/10/11 11:06:35;;;;;;;2.78;1.90;;;25.20;35.60;28.20;94649.00;;;;10378265;28;75395;-64
2021/10/11 11:11:35;;;;;;;2.95;1.80;;;25.30;35.60;28.20;94660.00;;;;10395992;28;46973;-65
2021/10/11 11:16:36;;;;;;;3.92;1.73;;;25.30;35.60;28.20;94662.00;;;;10394210;28;75936;-65
2021/10/11 11:21:37;;;;;;;2.72;1.85;;;25.20;35.60;28.20;94653.00;;;;10376937;28;74245;-66
2021/10/11 11:26:46;;;;;;;3.55;2.00;;;25.20;35.60;28.30;94650.00;;;;10393538;28;75596;-66
2021/10/11 11:31:51;;;;;;;2.95;1.85;;;25.20;35.50;28.20;94649.00;;;;10395970;28;51136;-65
2021/10/11 11:36:56;;;;;;;4.05;1.90;;;25.20;35.50;28.30;94642.00;;;;10393984;28;46361;-65
2021/10/11 11:41:56;;;;;;;2.67;1.88;;;25.20;35.50;28.20;94640.00;;;;10393487;28;74486;-65
2021/10/11 11:47:09;;;;;;;3.45;1.80;;;25.20;35.40;28.30;94643.00;;;;10393070;28;74368;-63
2021/10/11 11:52:14;;;;;;;2.72;1.70;;;25.20;35.40;28.20;94637.00;;;;10394150;28;46481;-64
2021/10/11 11:57:15;;;;;;;2.40;1.80;;;25.20;35.40;28.20;94639.00;;;;10376615;28;55175;-65
2021/10/11 12:02:18;;;;;;;3.38;1.95;;;25.30;35.40;28.20;94631.00;;;;10377203;28;51954;-63
2021/10/11 12:07:21;;;;;;;3.58;1.88;;;25.20;35.50;28.10;94642.00;;;;10394565;28;45689;-63
2021/10/11 12:12:33;;;;;;;3.60;1.65;;;25.20;35.50;28.30;94631.00;;;;10377655;28;47240;-63
2021/10/11 12:17:37;;;;;;;2.20;1.60;;;25.30;35.50;28.20;94606.00;;;;10394495;28;45447;-63
2021/10/11 12:22:37;;;;;;;2.05;1.60;;;25.20;35.40;28.20;94612.00;;;;10376725;28;47869;-63
2021/10/11 12:27:38;;;;;;;3.42;2.10;;;25.20;35.50;28.20;94611.00;;;;10392409;28;75412;-62
2021/10/11 12:32:39;;;;;;;2.80;1.80;;;25.20;35.20;28.20;94603.00;;;;10393053;28;45584;-62
2021/10/11 12:37:42;;;;;;;3.00;1.90;;;25.30;35.20;28.20;94594.00;;;;10393802;28;46188;-63
2021/10/11 12:42:46;;;;;;;2.35;1.60;;;25.40;35.20;28.20;94600.00;;;;10394039;28;45651;-62
2021/10/11 12:47:46;;;;;;;3.45;1.90;;;25.20;35.00;28.20;94601.00;;;;10391953;28;45280;-63
2021/10/11 12:52:48;;;;;;;3.53;2.08;;;25.20;35.00;28.20;94584.00;;;;10391316;28;64768;-63
2021/10/11 12:58:01;;;;;;;2.83;2.00;;;25.20;35.00;28.20;94591.00;;;;10393243;28;46265;-63
2021/10/11 13:03:04;;;;;;;3.95;2.10;;;25.20;35.10;28.20;94578.00;;;;10393744;28;52796;-64
2021/10/11 13:08:09;;;;;;;3.35;1.60;;;25.20;35.20;28.30;94591.00;;;;10391952;28;45517;-63
2021/10/11 13:13:10;;;;;;;3.80;2.05;;;25.20;35.00;28.20;94593.00;;;;10391852;28;45521;-64
2021/10/11 13:18:10;;;;;;;2.25;1.70;;;25.20;35.30;28.20;94585.00;;;;10391809;28;46821;-63
2021/10/11 13:23:11;;;;;;;2.92;1.60;;;25.20;35.00;28.20;94587.00;;;;10391641;28;74477;-63
2021/10/11 13:28:12;;;;;;;1.92;1.58;;;25.20;35.00;28.20;94586.00;;;;10390386;28;75299;-63
2021/10/11 14:31:46;;;;;;;2.78;1.85;;;25.20;35.40;28.10;94592.00;;;;10366053;28;45257;-63
2021/10/11 15:52:05;;;;;;;2.22;1.70;;;25.30;35.90;28.20;94580.00;;;;10344919;28;45364;-65
2021/10/11 16:02:05;;;;;;;2.80;2.00;;;25.40;36.00;28.20;94561.00;;;;10350855;28;45298;-64
2021/10/11 16:07:06;;;;;;;2.53;2.05;;;25.40;35.90;28.20;94567.00;;;;10335929;28;47263;-66
2021/10/11 16:12:07;;;;;;;2.63;1.80;;;25.40;35.90;28.30;94570.00;;;;10333706;28;75586;-65
2021/10/11 16:17:08;;;;;;;2.25;1.70;;;25.40;36.00;28.30;94567.00;;;;10347628;28;53991;-64
2021/10/11 16:22:08;;;;;;;3.08;2.10;;;25.30;35.80;28.20;94586.00;;;;10351408;28;74464;-64
2021/10/11 16:27:09;;;;;;;2.53;1.73;;;25.40;35.80;28.30;94585.00;;;;10352558;28;74876;-63
2021/10/11 16:32:10;;;;;;;2.65;2.03;;;25.40;35.80;28.20;94591.00;;;;10335169;28;74539;-64
2021/10/11 16:37:11;;;;;;;3.92;1.90;;;25.30;35.70;28.20;94590.00;;;;10333781;28;74238;-63
2021/10/11 16:42:11;;;;;;;3.75;2.08;;;25.30;35.70;28.20;94589.00;;;;10353547;28;46629;-64
2021/10/11 16:47:12;;;;;;;3.13;1.90;;;25.30;35.60;28.20;94602.00;;;;10353082;28;45475;-64
2021/10/11 16:52:13;;;;;;;2.85;2.00;;;25.30;35.70;28.20;94608.00;;;;10374795;28;74531;-64
2021/10/11 16:57:14;;;;;;;2.65;1.83;;;25.30;35.70;28.20;94597.00;;;;10371762;28;74432;-62
2021/10/11 17:02:14;;;;;;;2.72;2.00;;;25.30;35.80;28.20;94614.00;;;;10348274;28;45450;-63
2021/10/11 17:07:15;;;;;;;3.00;2.08;;;25.40;35.60;28.20;94607.00;;;;10360883;28;75574;-65
2021/10/11 17:12:16;;;;;;;3.75;1.80;;;25.30;35.70;28.20;94598.00;;;;10375216;28;45411;-66
2021/10/11 17:17:17;;;;;;;2.53;1.88;;;25.30;35.80;28.20;94601.00;;;;10389676;28;74064;-68
2021/10/11 17:22:17;;;;;;;3.20;2.10;;;25.40;35.80;28.20;94617.00;;;;10355542;28;73002;-68
2021/10/11 17:27:19;;;;;;;3.00;2.10;;;25.40;35.80;28.20;94621.00;;;;10348973;28;60036;-67
2021/10/11 17:32:21;;;;;;;3.15;2.40;;;25.30;35.70;28.20;94630.00;;;;10339744;28;46294;-68
2021/10/11 17:37:22;;;;;;;3.42;2.22;;;25.40;35.70;28.20;94636.00;;;;10333318;28;75500;-68
2021/10/11 17:42:22;;;;;;;3.78;2.78;;;25.30;35.60;28.20;94645.00;;;;10323568;28;75594;-67
2021/10/11 17:47:23;;;;;;;3.85;2.50;;;25.30;35.60;28.20;94639.00;;;;10328031;28;74531;-68
2021/10/11 17:52:24;;;;;;;3.42;2.55;;;25.30;35.60;28.20;94651.00;;;;10309050;28;74337;-67
2021/10/11 17:57:24;;;;;;;4.22;2.70;;;25.40;35.70;28.20;94640.00;;;;10310432;28;45467;-68
2021/10/11 18:02:25;;;;;;;3.80;2.90;;;25.30;35.60;28.20;94637.00;;;;10310243;28;75581;-68
2021/10/11 18:07:26;;;;;;;4.38;2.88;;;25.30;35.70;28.20;94632.00;;;;10309711;28;46356;-68
2021/10/11 18:12:28;;;;;;;3.85;2.75;;;25.30;35.60;28.20;94653.00;;;;10310884;28;47279;-68
2021/10/11 18:17:29;;;;;;;3.28;2.58;;;25.30;35.60;28.20;94642.00;;;;10325384;28;46342;-67
2021/10/11 18:22:30;;;;;;;3.85;2.65;;;25.30;35.60;28.20;94652.00;;;;10331678;28;73218;-68
2021/10/11 18:27:31;;;;;;;3.25;2.40;;;25.30;35.60;28.20;94649.00;;;;10333579;28;56080;-68
2021/10/11 18:32:31;;;;;;;3.47;2.60;;;25.30;35.60;28.20;94664.00;;;;10357877;28;45282;-67
2021/10/11 18:37:33;;;;;;;3.60;2.42;;;25.30;35.60;28.20;94661.00;;;;10323190;28;47811;-67
2021/10/11 18:42:33;;;;;;;3.17;2.30;;;25.40;35.70;28.10;94660.00;;;;10356298;28;74208;-68
2021/10/11 18:47:34;;;;;;;3.97;2.53;;;25.20;35.50;28.20;94642.00;;;;10322383;28;60680;-67
2021/10/11 18:52:35;;;;;;;3.20;2.30;;;25.40;35.70;28.20;94644.00;;;;10338615;28;74259;-67
2021/10/11 18:57:36;;;;;;;2.80;2.13;;;25.30;35.60;28.20;94640.00;;;;10339547;28;45355;-68
2021/10/11 19:02:36;;;;;;;3.17;2.38;;;25.20;35.50;28.10;94643.00;;;;10322657;28;47058;-67
2021/10/11 19:07:37;;;;;;;3.83;2.50;;;25.30;35.60;28.20;94633.00;;;;10338857;28;45619;-68
2021/10/11 19:12:39;;;;;;;3.13;2.10;;;25.30;35.60;28.20;94641.00;;;;10338953;28;46624;-68
2021/10/11 19:17:41;;;;;;;2.47;1.80;;;25.20;35.50;28.20;94636.00;;;;10321655;28;47424;-67
2021/10/11 19:22:42;;;;;;;3.33;2.30;;;25.30;35.50;28.20;94631.00;;;;10338249;28;47519;-68
2021/10/11 19:27:44;;;;;;;2.25;1.80;;;25.30;35.50;28.20;94637.00;;;;10321429;28;52550;-68
2021/10/11 19:32:45;;;;;;;3.60;2.22;;;25.40;35.60;28.20;94652.00;;;;10356484;28;46653;-67
2021/10/11 19:37:46;;;;;;;2.92;2.20;;;25.20;35.50;28.20;94647.00;;;;10338479;28;45448;-67
2021/10/11 19:42:48;;;;;;;2.92;2.03;;;25.30;35.50;28.20;94649.00;;;;10321454;28;47984;-67
2021/10/11 19:47:48;;;;;;;2.75;2.10;;;25.40;35.50;28.20;94637.00;;;;10337719;28;50910;-67
2021/10/11 19:52:49;;;;;;;2.88;1.98;;;25.40;35.50;28.20;94629.00;;;;10337771;28;46715;-68
2021/10/11 19:57:50;;;;;;;2.05;1.80;;;25.30;35.40;28.20;94636.00;;;;10320086;28;69117;-68
2021/10/11 20:02:52;;;;;;;2.40;1.80;;;25.30;35.30;28.20;94640.00;;;;10337810;28;45369;-68
2021/10/11 20:07:53;;;;;;;3.08;2.00;;;25.40;35.40;28.20;94641.00;;;;10335533;28;45674;-68
2021/10/11 20:12:54;;;;;;;3.10;2.10;;;25.30;35.30;28.20;94636.00;;;;10332039;28;46181;-67
2021/10/11 20:17:55;;;;;;;2.53;2.00;;;25.30;35.30;28.20;94628.00;;;;10335438;28;46254;-67
2021/10/11 20:22:56;;;;;;;3.08;1.90;;;25.30;35.20;28.20;94642.00;;;;10353307;28;75585;-68
2021/10/11 20:27:58;;;;;;;2.78;1.98;;;25.30;35.20;28.10;94632.00;;;;10319864;28;48117;-67
2021/10/11 20:33:00;;;;;;;3.83;2.10;;;25.20;35.10;28.20;94645.00;;;;10336161;28;47939;-67
2021/10/11 20:38:01;;;;;;;3.13;1.90;;;25.20;35.00;28.20;94654.00;;;;10319818;28;47023;-68
2021/10/11 20:43:01;;;;;;;2.15;1.80;;;25.30;34.90;28.20;94641.00;;;;10319113;28;71484;-68
2021/10/11 20:48:02;;;;;;;3.10;2.13;;;25.20;34.90;28.20;94643.00;;;;10319315;28;47973;-68
2021/10/11 20:53:03;;;;;;;3.83;2.20;;;25.20;34.80;28.20;94637.00;;;;10352263;28;52537;-67
2021/10/11 20:58:07;;;;;;;4.13;2.10;;;25.10;34.80;28.20;94623.00;;;;10334581;28;74149;-67
2021/10/11 21:03:10;;;;;;;2.47;1.90;;;25.10;34.80;28.20;94621.00;;;;10336288;28;45421;-67
2021/10/11 21:08:11;;;;;;;3.25;2.10;;;25.10;34.80;28.10;94609.00;;;;10313231;28;47904;-67
2021/10/11 21:13:11;;;;;;;2.80;1.90;;;25.10;34.70;28.10;94606.00;;;;10350319;28;74854;-67
2021/10/11 21:18:12;;;;;;;3.00;1.88;;;25.20;34.80;28.10;94609.00;;;;10351797;28;75282;-67
2021/10/11 21:23:13;;;;;;;3.28;2.17;;;25.20;34.80;28.10;94600.00;;;;10318919;28;47693;-67
2021/10/11 21:28:14;;;;;;;2.97;1.90;;;25.00;34.70;28.10;94588.00;;;;10404896;22;46090;-65
2021/10/11 21:33:14;;;;;;;2.80;2.05;;;25.00;34.70;28.10;94606.00;;;;10392395;28;59730;-64
2021/10/11 21:38:15;;;;;;;2.50;1.90;;;25.10;34.80;28.10;94607.00;;;;10332354;28;68639;-64
2021/10/11 21:43:18;;;;;;;2.95;1.73;;;25.10;34.80;28.00;94606.00;;;;10333807;28;71039;-66
2021/10/11 21:48:19;;;;;;;3.33;2.03;;;25.20;34.90;28.00;94590.00;;;;10333838;28;48400;-65
2021/10/11 21:53:19;;;;;;;3.17;2.00;;;25.10;34.80;28.00;94601.00;;;;10333366;28;73112;-65
2021/10/11 21:58:20;;;;;;;3.88;2.20;;;25.00;34.70;28.00;94592.00;;;;10332803;28;74529;-65
2021/10/11 22:03:21;;;;;;;2.60;1.85;;;25.00;34.80;28.00;94582.00;;;;10333884;28;45430;-64
2021/10/11 22:08:22;;;;;;;3.20;2.00;;;25.00;34.80;28.00;94577.00;;;;10332334;28;47361;-64
2021/10/11 22:13:24;;;;;;;2.65;1.88;;;25.00;34.80;28.00;94575.00;;;;10332697;28;45386;-64
2021/10/11 22:18:25;;;;;;;2.65;1.88;;;25.00;34.80;28.00;94565.00;;;;10332438;28;48538;-64
2021/10/11 22:23:26;;;;;;;2.28;1.90;;;25.00;34.80;28.00;94581.00;;;;10315596;28;64253;-64
2021/10/11 22:28:27;;;;;;;2.83;1.83;;;24.90;34.80;27.90;94590.00;;;;10349534;28;45299;-64
2021/10/11 22:33:28;;;;;;;2.38;1.80;;;25.10;34.90;27.90;94576.00;;;;10350024;28;64870;-64
2021/10/11 22:38:30;;;;;;;3.10;2.15;;;24.90;34.80;27.90;94584.00;;;;10332832;28;46439;-65
2021/10/11 22:43:30;;;;;;;2.80;1.88;;;24.90;34.90;27.90;94583.00;;;;10333240;28;47115;-65
2021/10/11 22:48:31;;;;;;;2.60;1.80;;;25.00;34.90;27.90;94582.00;;;;10332712;28;45365;-65
2021/10/11 22:53:32;;;;;;;2.58;1.80;;;24.90;34.90;27.90;94579.00;;;;10331246;28;75615;-65
2021/10/11 22:58:32;;;;;;;2.65;1.67;;;24.90;34.90;27.90;94574.00;;;;10331796;28;47120;-64
2021/10/11 23:03:33;;;;;;;2.85;2.10;;;24.90;34.90;27.90;94576.00;;;;10331956;28;62018;-64
2021/10/11 23:08:34;;;;;;;3.00;2.08;;;24.90;34.90;27.90;94574.00;;;;10314467;28;74463;-65
2021/10/11 23:13:35;;;;;;;3.05;1.90;;;24.90;34.90;27.90;94556.00;;;;10331642;28;50694;-65
2021/10/11 23:18:35;;;;;;;3.08;1.90;;;24.90;34.90;27.90;94569.00;;;;10354968;28;75298;-65
2021/10/11 23:23:36;;;;;;;3.05;2.00;;;24.90;34.90;27.90;94546.00;;;;10337888;28;75520;-65
2021/10/11 23:28:37;;;;;;;3.00;2.13;;;24.90;34.90;27.90;94551.00;;;;10336939;28;74339;-65
2021/10/11 23:33:37;;;;;;;3.47;2.13;;;24.90;34.90;27.90;94546.00;;;;10355210;28;75711;-65
2021/10/11 23:38:38;;;;;;;2.95;2.00;;;24.90;34.90;27.90;94538.00;;;;10337358;28;66580;-64
2021/10/11 23:43:39;;;;;;;3.30;2.00;;;24.90;35.00;27.90;94524.00;;;;10355781;28;46033;-65
2021/10/11 23:48:40;;;;;;;3.28;2.00;;;24.80;34.90;27.90;94531.00;;;;10354301;28;74937;-64
2021/10/11 23:53:40;;;;;;;3.22;1.73;;;24.80;34.90;27.90;94531.00;;;;10337280;28;55957;-65
2021/10/11 23:58:41;;;;;;;2.10;1.70;;;24.80;34.90;27.90;94517.00;;;;10336353;28;73396;-64
